Dream Angel — 3EEV — position and weather

sailwx.info

Track history (hours):
 
Tides and Currents Weather Stations Pressure Air Temp Water Temp Dewpoint Dewpoint Depression Visibility Wind Speed Wind Dir Waves Ship Positions

Dream Angel

Last reported at 2014-Aug-17 18:32 UTC. Time now 2014-Aug-20 06:52 UTC.
Position N 31°02' E 122°50'.

Length 187 m; draft 7 m.

Type: Ship. MMSI: 371820000.

Date/timePositionNaut miles runAvg speedWind from/ knotsBaromVisibWave heightAir tempDewpointWater temp
2014-Aug-17 18:32N 31°02' E 122°50'0 0.0
2014-Aug-17 14:26N 31°02' E 122°50'6 5.6
2014-Aug-17 13:24N 31°05' E 122°44'1214.0
2014-Aug-17 12:31N 31°05' E 122°30'1313.1
2014-Aug-17 11:33N 31°08' E 122°15'1814.7
2014-Aug-17 10:19N 31°15' E 121°56'1013.2
2014-Aug-17 09:33N 31°19' E 121°45'6 5.7
2014-Aug-17 08:33N 31°21' E 121°39'0 0.0
2014-Aug-17 07:27N 31°21' E 121°39'0 0.0
2014-Aug-17 06:21N 31°21' E 121°39'0 0.0
2014-Aug-17 05:03N 31°21' E 121°39'0 0.0
2014-Aug-17 04:33N 31°21' E 121°39'0 0.0
2014-Aug-17 03:33N 31°21' E 121°39'0 0.0
2014-Aug-17 02:21N 31°21' E 121°39'0 0.0
2014-Aug-17 01:21N 31°21' E 121°39'0 0.1
2014-Aug-17 00:27N 31°21' E 121°39'0 0.0
2014-Aug-16 22:21N 31°21' E 121°39'0 0.0
2014-Aug-16 21:33N 31°21' E 121°39'0 0.0
2014-Aug-16 20:15N 31°21' E 121°39'0 0.1
2014-Aug-16 19:33N 31°21' E 121°39'5 4.9
2014-Aug-16 18:33N 31°18' E 121°43'1514.7
2014-Aug-16 17:33N 31°08' E 121°56'1413.0
2014-Aug-16 16:28N 31°03' E 122°11'8 8.6
2014-Aug-16 15:33N 31°02' E 122°21'9 8.8
2014-Aug-16 14:32N 31°00' E 122°31'7 6.8
2014-Aug-16 13:30N 30°58' E 122°39'8 8.6
2014-Aug-16 12:33N 30°57' E 122°48'8 7.9
2014-Aug-16 11:33N 30°58' E 122°57'6 1.5
2014-Aug-16 07:29N 31°01' E 123°03'33716.9
2014-Aug-15 11:33N 36°38' E 123°35'1717.0
2014-Aug-15 10:32N 36°54' E 123°27'1818.0
2014-Aug-15 09:33N 37°10' E 123°17'2319.1
2014-Aug-15 08:22N 37°30' E 123°05'1619.5
2014-Aug-15 07:33N 37°42' E 122°52'2019.3
2014-Aug-15 06:32N 37°52' E 122°30'1818.6
2014-Aug-15 05:33N 38°01' E 122°10'18516.6
2014-Aug-14 18:23N 38°49' E 118°23'1012.3
2014-Aug-14 17:34N 38°52' E 118°10'9 9.4
2014-Aug-14 16:34N 38°56' E 117°59'1010.0
2014-Aug-14 15:33N 38°59' E 117°47'0 0.1
2014-Aug-14 14:32N 38°59' E 117°47'0 0.0
2014-Aug-14 13:29N 38°59' E 117°47'0 0.0
2014-Aug-14 12:29N 38°59' E 117°47'0 0.0
2014-Aug-14 11:32N 38°59' E 117°47'0 0.0
2014-Aug-14 10:32N 38°59' E 117°47'0 0.0
2014-Aug-14 09:32N 38°59' E 117°47'0 0.0
2014-Aug-14 08:32N 38°59' E 117°47'0 0.0
2014-Aug-14 07:32N 38°59' E 117°47'0 0.1
2014-Aug-14 06:33N 38°59' E 117°47'10 9.5
2014-Aug-14 05:33N 38°57' E 117°59'6 5.6
2014-Aug-14 04:33N 38°56' E 118°06'15013.6
2014-Aug-13 17:33N 38°28' E 121°14'1616.1
2014-Aug-13 16:33N 38°21' E 121°33'3615.6
2014-Aug-13 14:14N 38°04' E 122°14'  
2014-Aug-09 20:08N 24°13' E 119°12'6216.1
2014-Aug-09 16:17N 23°34' E 118°19'4816.7
2014-Aug-09 13:23N 23°05' E 117°36'21915.8
2014-Aug-08 23:33N 21°56' E 113°52'1313.3
2014-Aug-08 22:33N 22°09' E 113°48'10 9.6
2014-Aug-08 21:33N 22°18' E 113°48'1111.3
2014-Aug-08 20:33N 22°29' E 113°45'1211.6
2014-Aug-08 19:32N 22°41' E 113°41'1111.0
2014-Aug-08 18:33N 22°50' E 113°35'1010.2
2014-Aug-08 17:33N 22°60' E 113°32'1 1.0
2014-Aug-08 16:29N 23°01' E 113°32'0 0.0
2014-Aug-08 15:29N 23°01' E 113°32'0 0.0
2014-Aug-08 14:29N 23°01' E 113°32'0 0.0
2014-Aug-08 13:29N 23°01' E 113°32'0 0.0
2014-Aug-08 12:23N 23°01' E 113°32'0 0.0
2014-Aug-08 11:29N 23°01' E 113°32'0 0.0
2014-Aug-08 10:29N 23°01' E 113°32'5 5.7
2014-Aug-08 09:33N 22°56' E 113°33'1110.6
2014-Aug-08 08:33N 22°46' E 113°38'1110.7
2014-Aug-08 07:33N 22°36' E 113°43'9 9.2
2014-Aug-08 06:33N 22°27' E 113°45'8 8.4
2014-Aug-08 05:33N 22°19' E 113°48'10 9.5
2014-Aug-08 04:33N 22°10' E 113°47'5 5.3
2014-Aug-08 03:33N 22°05' E 113°50'4 3.2
2014-Aug-08 02:10N 22°05' E 113°55'0 0.0
2014-Aug-08 01:22N 22°05' E 113°55'0 0.0
2014-Aug-08 00:28N 22°05' E 113°55'0 0.0
2014-Aug-07 23:10N 22°05' E 113°55'0 0.0
2014-Aug-07 22:22N 22°05' E 113°55'0 0.0
2014-Aug-07 21:04N 22°05' E 113°55'0 0.1
2014-Aug-07 20:22N 22°05' E 113°55'0 0.0
2014-Aug-07 19:28N 22°05' E 113°55'  
Track history (hours):
 
Tides and Currents Weather Stations Pressure Air Temp Water Temp Dewpoint Dewpoint Depression Visibility Wind Speed Wind Dir Waves Ship Positions

Dream Angel

Last reported at 2014-Aug-17 18:32 UTC. Time now 2014-Aug-20 06:52 UTC.
Position N 31°02' E 122°50'.

Length 187 m; draft 7 m.

Type: Ship. MMSI: 371820000.

Date/timePositionNaut miles runAvg speedWind from/ knotsBaromVisibWave heightAir tempDewpointWater temp
2014-Aug-17 18:32N 31°02' E 122°50'0 0.0
2014-Aug-17 14:26N 31°02' E 122°50'6 5.6
2014-Aug-17 13:24N 31°05' E 122°44'1214.0
2014-Aug-17 12:31N 31°05' E 122°30'1313.1
2014-Aug-17 11:33N 31°08' E 122°15'1814.7
2014-Aug-17 10:19N 31°15' E 121°56'1013.2
2014-Aug-17 09:33N 31°19' E 121°45'6 5.7
2014-Aug-17 08:33N 31°21' E 121°39'0 0.0
2014-Aug-17 07:27N 31°21' E 121°39'0 0.0
2014-Aug-17 06:21N 31°21' E 121°39'0 0.0
2014-Aug-17 05:03N 31°21' E 121°39'0 0.0
2014-Aug-17 04:33N 31°21' E 121°39'0 0.0
2014-Aug-17 03:33N 31°21' E 121°39'0 0.0
2014-Aug-17 02:21N 31°21' E 121°39'0 0.0
2014-Aug-17 01:21N 31°21' E 121°39'0 0.1
2014-Aug-17 00:27N 31°21' E 121°39'0 0.0
2014-Aug-16 22:21N 31°21' E 121°39'0 0.0
2014-Aug-16 21:33N 31°21' E 121°39'0 0.0
2014-Aug-16 20:15N 31°21' E 121°39'0 0.1
2014-Aug-16 19:33N 31°21' E 121°39'5 4.9
2014-Aug-16 18:33N 31°18' E 121°43'1514.7
2014-Aug-16 17:33N 31°08' E 121°56'1413.0
2014-Aug-16 16:28N 31°03' E 122°11'8 8.6
2014-Aug-16 15:33N 31°02' E 122°21'9 8.8
2014-Aug-16 14:32N 31°00' E 122°31'7 6.8
2014-Aug-16 13:30N 30°58' E 122°39'8 8.6
2014-Aug-16 12:33N 30°57' E 122°48'8 7.9
2014-Aug-16 11:33N 30°58' E 122°57'6 1.5
2014-Aug-16 07:29N 31°01' E 123°03'33716.9
2014-Aug-15 11:33N 36°38' E 123°35'1717.0
2014-Aug-15 10:32N 36°54' E 123°27'1818.0
2014-Aug-15 09:33N 37°10' E 123°17'2319.1
2014-Aug-15 08:22N 37°30' E 123°05'1619.5
2014-Aug-15 07:33N 37°42' E 122°52'2019.3
2014-Aug-15 06:32N 37°52' E 122°30'1818.6
2014-Aug-15 05:33N 38°01' E 122°10'18516.6
2014-Aug-14 18:23N 38°49' E 118°23'1012.3
2014-Aug-14 17:34N 38°52' E 118°10'9 9.4
2014-Aug-14 16:34N 38°56' E 117°59'1010.0
2014-Aug-14 15:33N 38°59' E 117°47'0 0.1
2014-Aug-14 14:32N 38°59' E 117°47'0 0.0
2014-Aug-14 13:29N 38°59' E 117°47'0 0.0
2014-Aug-14 12:29N 38°59' E 117°47'0 0.0
2014-Aug-14 11:32N 38°59' E 117°47'0 0.0
2014-Aug-14 10:32N 38°59' E 117°47'0 0.0
2014-Aug-14 09:32N 38°59' E 117°47'0 0.0
2014-Aug-14 08:32N 38°59' E 117°47'0 0.0
2014-Aug-14 07:32N 38°59' E 117°47'0 0.1
2014-Aug-14 06:33N 38°59' E 117°47'10 9.5
2014-Aug-14 05:33N 38°57' E 117°59'6 5.6
2014-Aug-14 04:33N 38°56' E 118°06'15013.6
2014-Aug-13 17:33N 38°28' E 121°14'1616.1
2014-Aug-13 16:33N 38°21' E 121°33'3615.6
2014-Aug-13 14:14N 38°04' E 122°14'  
2014-Aug-09 20:08N 24°13' E 119°12'6216.1
2014-Aug-09 16:17N 23°34' E 118°19'4816.7
2014-Aug-09 13:23N 23°05' E 117°36'21915.8
2014-Aug-08 23:33N 21°56' E 113°52'1313.3
2014-Aug-08 22:33N 22°09' E 113°48'10 9.6
2014-Aug-08 21:33N 22°18' E 113°48'1111.3
2014-Aug-08 20:33N 22°29' E 113°45'1211.6
2014-Aug-08 19:32N 22°41' E 113°41'1111.0
2014-Aug-08 18:33N 22°50' E 113°35'1010.2
2014-Aug-08 17:33N 22°60' E 113°32'1 1.0
2014-Aug-08 16:29N 23°01' E 113°32'0 0.0
2014-Aug-08 15:29N 23°01' E 113°32'0 0.0
2014-Aug-08 14:29N 23°01' E 113°32'0 0.0
2014-Aug-08 13:29N 23°01' E 113°32'0 0.0
2014-Aug-08 12:23N 23°01' E 113°32'0 0.0
2014-Aug-08 11:29N 23°01' E 113°32'0 0.0
2014-Aug-08 10:29N 23°01' E 113°32'5 5.7
2014-Aug-08 09:33N 22°56' E 113°33'1110.6
2014-Aug-08 08:33N 22°46' E 113°38'1110.7
2014-Aug-08 07:33N 22°36' E 113°43'9 9.2
2014-Aug-08 06:33N 22°27' E 113°45'8 8.4
2014-Aug-08 05:33N 22°19' E 113°48'10 9.5
2014-Aug-08 04:33N 22°10' E 113°47'5 5.3
2014-Aug-08 03:33N 22°05' E 113°50'4 3.2
2014-Aug-08 02:10N 22°05' E 113°55'0 0.0
2014-Aug-08 01:22N 22°05' E 113°55'0 0.0
2014-Aug-08 00:28N 22°05' E 113°55'0 0.0
2014-Aug-07 23:10N 22°05' E 113°55'0 0.0
2014-Aug-07 22:22N 22°05' E 113°55'0 0.0
2014-Aug-07 21:04N 22°05' E 113°55'0 0.1
2014-Aug-07 20:22N 22°05' E 113°55'0 0.0
2014-Aug-07 19:28N 22°05' E 113°55'  

Dump ship's entire track history